Time;durP1;ratioP1;P1;durP2;ratioP2;P2;SDS_P1;SDS_P2;PMS_P1;PMS_P2;Temp;Humidity;BMP_temperature;BMP_pressure;BME280_temperature;BME280_humidity;BME280_pressure;Samples;Min_cycle;Max_cycle;Signal;HPM_P1;HPM_P2
2023/05/14 00:01:57;;;;;;;16.62;14.85;;;22.50;62.70;;;;;;4762455;55;21482;-22
2023/05/14 00:06:58;;;;;;;16.45;14.75;;;22.50;62.70;;;;;;4789733;55;21016;-20
2023/05/14 00:11:59;;;;;;;16.80;15.00;;;22.50;62.70;;;;;;4852477;55;21004;-24
2023/05/14 00:17:00;;;;;;;16.48;14.65;;;22.60;62.80;;;;;;4728151;55;21071;-19
2023/05/14 00:22:01;;;;;;;17.42;15.27;;;22.50;62.70;;;;;;4732467;55;21078;-21
2023/05/14 00:27:02;;;;;;;16.40;14.70;;;22.60;62.80;;;;;;4715366;59;20999;-18
2023/05/14 00:32:04;;;;;;;15.43;13.90;;;22.50;62.70;;;;;;4717454;55;21019;-20
2023/05/14 00:37:05;;;;;;;15.85;14.15;;;22.60;62.80;;;;;;4715158;59;21509;-20
2023/05/14 00:42:06;;;;;;;15.32;13.73;;;22.60;62.80;;;;;;4720845;55;21046;-18
2023/05/14 00:47:07;;;;;;;14.93;13.32;;;22.50;62.80;;;;;;4736951;55;21051;-20
2023/05/14 00:52:09;;;;;;;16.40;14.63;;;22.50;62.80;;;;;;4719289;55;21497;-20
2023/05/14 00:57:10;;;;;;;14.95;13.40;;;22.50;62.80;;;;;;4767274;55;21043;-19
2023/05/14 01:02:11;;;;;;;15.40;13.80;;;22.60;62.80;;;;;;4814470;55;21083;-19
2023/05/14 01:07:45;;;;;;;15.70;14.07;;;22.50;62.80;;;;;;4788411;55;21075;-19
2023/05/14 01:13:43;;;;;;;15.10;13.50;;;22.50;62.80;;;;;;4771044;55;21060;-18
2023/05/14 01:18:47;;;;;;;16.45;13.82;;;22.50;62.80;;;;;;4770053;55;21075;-19
2023/05/14 01:23:48;;;;;;;14.48;12.98;;;22.50;62.90;;;;;;4782497;55;20999;-19
2023/05/14 01:28:51;;;;;;;15.98;14.27;;;22.50;62.80;;;;;;4715701;57;21014;-21
2023/05/14 01:33:56;;;;;;;14.82;13.00;;;22.50;62.80;;;;;;4729423;55;21051;-19
2023/05/14 01:38:59;;;;;;;14.48;12.98;;;22.50;62.80;;;;;;4761836;55;21011;-19
2023/05/14 01:44:00;;;;;;;14.35;12.65;;;22.60;62.90;;;;;;4724463;55;21553;-19
2023/05/14 01:49:01;;;;;;;14.20;12.35;;;22.50;62.80;;;;;;4727553;55;21094;-19
2023/05/14 01:54:05;;;;;;;14.05;12.68;;;22.50;62.90;;;;;;4749602;55;21062;-19
2023/05/14 01:59:06;;;;;;;14.65;13.15;;;22.50;62.90;;;;;;4715843;59;21016;-19
2023/05/14 02:04:06;;;;;;;14.15;12.65;;;22.50;62.90;;;;;;4901063;55;21043;-18
2023/05/14 02:09:07;;;;;;;14.73;13.23;;;22.50;63.50;;;;;;4761973;55;21324;-20
2023/05/14 02:14:08;;;;;;;14.43;12.93;;;22.50;62.90;;;;;;4783989;55;21481;-19
2023/05/14 02:19:09;;;;;;;13.82;12.43;;;22.50;63.50;;;;;;4740903;55;21545;-18
2023/05/14 02:24:10;;;;;;;13.60;12.23;;;22.50;62.90;;;;;;4778545;55;21479;-19
2023/05/14 02:29:11;;;;;;;14.45;12.93;;;22.50;62.90;;;;;;4715466;59;21043;-19
2023/05/14 02:34:12;;;;;;;13.88;12.48;;;22.50;62.90;;;;;;4726044;55;21573;-18
2023/05/14 02:39:13;;;;;;;13.40;11.65;;;22.50;62.90;;;;;;4724981;55;21006;-19
2023/05/14 02:44:14;;;;;;;13.90;12.40;;;22.50;63.00;;;;;;4785207;55;21026;-20
2023/05/14 02:49:15;;;;;;;13.32;12.02;;;22.50;62.90;;;;;;4750438;55;21004;-19
2023/05/14 02:54:15;;;;;;;13.30;11.95;;;22.50;62.90;;;;;;4742300;55;21023;-20
2023/05/14 02:59:16;;;;;;;13.25;11.85;;;22.50;62.90;;;;;;4715811;59;21015;-19
2023/05/14 03:04:17;;;;;;;13.62;11.63;;;22.50;63.00;;;;;;4753628;55;21031;-20
2023/05/14 03:09:18;;;;;;;12.85;11.45;;;22.50;62.90;;;;;;4779171;55;21490;-20
2023/05/14 03:14:19;;;;;;;12.52;11.23;;;22.50;62.90;;;;;;4785439;55;21554;-20
2023/05/14 03:19:20;;;;;;;12.75;11.45;;;22.50;62.90;;;;;;4818327;55;21038;-19
2023/05/14 03:24:21;;;;;;;13.10;11.07;;;22.50;62.90;;;;;;4744653;55;21706;-20
2023/05/14 03:29:22;;;;;;;13.07;11.77;;;22.50;62.90;;;;;;4867285;55;21020;-19
2023/05/14 03:34:26;;;;;;;12.98;11.68;;;22.50;63.00;;;;;;4774863;55;21079;-20
2023/05/14 03:39:26;;;;;;;13.23;11.85;;;22.50;62.90;;;;;;4716058;55;21063;-28
2023/05/14 03:44:27;;;;;;;12.55;11.25;;;22.50;62.90;;;;;;4775361;55;21486;-19
2023/05/14 03:49:28;;;;;;;11.57;10.40;;;22.50;63.00;;;;;;4873161;55;21023;-18
2023/05/14 03:54:29;;;;;;;12.48;11.18;;;22.50;62.90;;;;;;4790167;55;21118;-19
2023/05/14 03:59:30;;;;;;;12.20;10.98;;;22.50;63.10;;;;;;4715948;59;21033;-19
2023/05/14 04:04:30;;;;;;;12.27;11.00;;;22.50;63.60;;;;;;4777804;55;21015;-20
2023/05/14 04:09:31;;;;;;;11.35;10.15;;;22.50;62.90;;;;;;4715812;56;21517;-19
2023/05/14 04:14:32;;;;;;;12.05;10.80;;;22.50;62.90;;;;;;4759396;55;21024;-19
2023/05/14 04:19:33;;;;;;;12.05;10.77;;;22.50;63.00;;;;;;4812880;55;21051;-19
2023/05/14 04:24:34;;;;;;;11.35;10.15;;;22.50;62.90;;;;;;4715478;55;21044;-19
2023/05/14 04:29:36;;;;;;;11.85;10.65;;;22.50;62.90;;;;;;4815058;55;21490;-19
2023/05/14 04:34:37;;;;;;;10.77;9.75;;;22.40;62.90;;;;;;4749804;55;21019;-20
2023/05/14 04:39:38;;;;;;;11.68;10.48;;;22.50;62.90;;;;;;4776749;55;21019;-20
2023/05/14 04:44:38;;;;;;;11.25;10.15;;;22.50;63.00;;;;;;4758631;55;21080;-19
2023/05/14 04:49:39;;;;;;;11.45;10.25;;;22.50;63.10;;;;;;4762224;55;21079;-21
2023/05/14 04:54:40;;;;;;;11.23;10.13;;;22.40;63.00;;;;;;4728074;55;21075;-19
2023/05/14 04:59:41;;;;;;;10.82;9.73;;;22.50;63.00;;;;;;4785604;55;21031;-20
2023/05/14 05:04:42;;;;;;;10.75;9.73;;;22.40;62.90;;;;;;4722574;55;21003;-19
2023/05/14 05:09:43;;;;;;;10.38;9.30;;;22.50;63.00;;;;;;4728814;55;21023;-20
2023/05/14 05:14:44;;;;;;;11.18;10.07;;;22.40;62.90;;;;;;4723902;55;21028;-19
2023/05/14 05:19:44;;;;;;;10.93;9.82;;;22.50;62.90;;;;;;4814015;55;21051;-21
2023/05/14 05:24:45;;;;;;;10.77;9.68;;;22.50;63.00;;;;;;4755379;55;21505;-19
2023/05/14 05:29:46;;;;;;;11.02;9.93;;;22.50;63.00;;;;;;4715574;59;21043;-20
2023/05/14 05:34:47;;;;;;;10.68;9.68;;;22.50;63.00;;;;;;4732966;55;21071;-19
2023/05/14 05:39:48;;;;;;;10.95;9.85;;;22.40;62.90;;;;;;4720967;55;21083;-22
2023/05/14 05:44:49;;;;;;;10.35;9.35;;;22.50;62.90;;;;;;4716006;59;21011;-21
2023/05/14 05:49:49;;;;;;;10.60;9.40;;;22.50;62.90;;;;;;4724321;55;22163;-19
2023/05/14 05:54:50;;;;;;;10.63;9.52;;;22.50;62.90;;;;;;4812345;55;21115;-19
2023/05/14 05:59:51;;;;;;;10.35;9.35;;;22.50;63.00;;;;;;4802295;55;21454;-20
2023/05/14 06:04:52;;;;;;;10.30;9.30;;;22.40;63.50;;;;;;4740623;55;21609;-20
2023/05/14 06:09:53;;;;;;;11.02;9.93;;;22.50;62.90;;;;;;4716661;55;21336;-19
2023/05/14 06:14:56;;;;;;;10.93;9.82;;;22.40;62.90;;;;;;4732947;55;21365;-19
2023/05/14 06:19:57;;;;;;;10.15;9.10;;;22.50;62.90;;;;;;4825865;55;21534;-19
2023/05/14 06:24:58;;;;;;;10.10;9.10;;;22.50;62.90;;;;;;4736327;55;21027;-20
2023/05/14 06:29:59;;;;;;;10.32;9.32;;;22.40;62.90;;;;;;4733426;55;21439;-19
2023/05/14 06:34:59;;;;;;;10.52;9.52;;;22.40;62.90;;;;;;4746814;55;21100;-18
2023/05/14 06:40:02;;;;;;;9.88;8.98;;;22.50;62.90;;;;;;4715485;59;21039;-19
2023/05/14 06:45:04;;;;;;;10.30;9.20;;;22.50;62.90;;;;;;4806560;55;21513;-20
2023/05/14 06:50:06;;;;;;;9.93;8.93;;;22.50;62.90;;;;;;4715712;57;21550;-23
2023/05/14 06:55:07;;;;;;;10.35;9.25;;;22.40;63.20;;;;;;4738851;55;21035;-20
2023/05/14 07:00:09;;;;;;;9.98;8.98;;;22.50;62.90;;;;;;4755039;55;21020;-23
2023/05/14 07:05:10;;;;;;;10.90;9.80;;;22.40;62.90;;;;;;4738078;55;21518;-20
2023/05/14 07:10:11;;;;;;;10.57;9.50;;;22.40;62.80;;;;;;4776659;55;21023;-17
2023/05/14 07:15:13;;;;;;;10.40;9.40;;;22.40;62.90;;;;;;4715908;59;21550;-19
2023/05/14 07:20:14;;;;;;;9.80;8.80;;;22.50;62.90;;;;;;4737131;55;21112;-23
2023/05/14 07:25:15;;;;;;;10.55;9.45;;;22.40;62.80;;;;;;4810800;55;20999;-19
2023/05/14 07:30:16;;;;;;;10.98;9.63;;;22.50;62.90;;;;;;4802437;55;21011;-19
2023/05/14 07:35:17;;;;;;;10.65;9.65;;;22.40;62.80;;;;;;4715193;59;21035;-23
2023/05/14 07:40:18;;;;;;;11.18;10.07;;;22.50;62.90;;;;;;4817999;55;21027;-21
2023/05/14 07:45:18;;;;;;;11.45;9.70;;;22.50;62.90;;;;;;4802850;55;21076;-20
2023/05/14 07:50:19;;;;;;;11.07;10.05;;;22.50;62.80;;;;;;4746772;55;21464;-21
2023/05/14 07:55:20;;;;;;;11.85;10.65;;;22.50;62.80;;;;;;4786320;55;22740;-18
2023/05/14 08:00:21;;;;;;;11.27;10.00;;;22.40;62.80;;;;;;4715342;59;21023;-20
2023/05/14 08:05:22;;;;;;;11.38;10.27;;;22.50;62.80;;;;;;4715587;56;21474;-18
2023/05/14 08:10:23;;;;;;;10.25;9.25;;;22.50;62.80;;;;;;4762088;55;21067;-19
2023/05/14 08:15:24;;;;;;;11.65;10.43;;;22.50;62.80;;;;;;4778442;55;21603;-20
2023/05/14 08:20:25;;;;;;;11.48;10.30;;;22.50;62.80;;;;;;4746372;55;21099;-20
2023/05/14 08:25:25;;;;;;;11.32;10.13;;;22.50;62.80;;;;;;4715347;56;21111;-19
2023/05/14 08:30:27;;;;;;;10.93;9.82;;;22.50;62.80;;;;;;4733723;55;21027;-20
2023/05/14 08:35:28;;;;;;;11.65;10.50;;;22.50;62.80;;;;;;4735860;55;21593;-21
2023/05/14 08:40:28;;;;;;;10.40;9.40;;;22.50;62.80;;;;;;4738308;55;21035;-20
2023/05/14 08:45:32;;;;;;;12.05;10.85;;;22.50;62.80;;;;;;4725311;55;21505;-20
2023/05/14 08:50:34;;;;;;;11.77;10.50;;;22.50;62.80;;;;;;4715317;59;21480;-23
2023/05/14 08:55:37;;;;;;;11.93;10.65;;;22.40;62.70;;;;;;4730026;55;21546;-19
2023/05/14 09:00:41;;;;;;;12.25;10.85;;;22.50;62.80;;;;;;4748102;55;21076;-21
2023/05/14 09:05:42;;;;;;;11.88;10.45;;;22.50;62.80;;;;;;4782155;55;21620;-19
2023/05/14 09:10:43;;;;;;;12.77;11.48;;;22.50;62.80;;;;;;4743769;55;21019;-21
2023/05/14 09:15:45;;;;;;;11.98;10.77;;;22.50;62.70;;;;;;4715738;56;21504;-19
2023/05/14 09:20:46;;;;;;;13.30;11.75;;;22.50;62.70;;;;;;4789515;55;21131;-20
2023/05/14 09:25:48;;;;;;;13.10;11.80;;;22.50;62.80;;;;;;4832735;55;21493;-18
2023/05/14 09:30:51;;;;;;;11.32;10.23;;;22.50;62.70;;;;;;4715737;59;21609;-18
2023/05/14 09:35:57;;;;;;;12.45;10.60;;;22.40;62.70;;;;;;4719097;55;21490;-23
2023/05/14 09:40:59;;;;;;;12.60;11.30;;;22.50;62.70;;;;;;4903921;55;21498;-20
2023/05/14 09:46:00;;;;;;;11.82;10.63;;;22.50;62.80;;;;;;4716313;55;21493;-24
2023/05/14 09:51:01;;;;;;;13.40;11.75;;;22.50;62.70;;;;;;4724944;55;21039;-20
2023/05/14 09:56:02;;;;;;;12.77;11.43;;;22.50;63.30;;;;;;4772949;55;21159;-23
2023/05/14 10:01:04;;;;;;;12.02;10.77;;;22.50;62.80;;;;;;4716307;56;21024;-20
2023/05/14 10:06:06;;;;;;;12.57;11.25;;;22.50;62.70;;;;;;4715367;59;21007;-24
2023/05/14 10:11:19;;;;;;;11.75;10.38;;;22.50;62.70;;;;;;4727486;55;21490;-20
2023/05/14 10:16:33;;;;;;;13.80;12.40;;;22.50;62.80;;;;;;4746466;55;21462;-19
2023/05/14 10:21:36;;;;;;;12.82;11.48;;;22.40;62.60;;;;;;4715500;55;21977;-19
2023/05/14 10:26:39;;;;;;;13.98;12.37;;;22.50;62.70;;;;;;4735631;55;21068;-20
2023/05/14 10:31:52;;;;;;;13.38;11.98;;;22.50;62.70;;;;;;4729095;55;21817;-20
2023/05/14 10:36:57;;;;;;;13.35;12.05;;;22.50;62.60;;;;;;4728562;55;21564;-22
2023/05/14 10:41:59;;;;;;;14.15;12.07;;;22.50;62.60;;;;;;4715647;59;21023;-21
2023/05/14 10:47:02;;;;;;;13.20;11.80;;;22.50;62.70;;;;;;4776373;55;21478;-21
2023/05/14 10:52:03;;;;;;;13.55;11.93;;;22.50;62.70;;;;;;4748538;55;21498;-26
2023/05/14 10:57:11;;;;;;;13.57;12.18;;;22.50;62.70;;;;;;4714939;59;21373;-27
2023/05/14 11:02:29;;;;;;;14.02;11.98;;;22.50;62.70;;;;;;4760776;55;21482;-19
2023/05/14 11:07:32;;;;;;;13.30;11.90;;;22.50;62.70;;;;;;4728333;55;21086;-20
2023/05/14 11:12:35;;;;;;;14.13;12.68;;;22.50;62.60;;;;;;4748458;55;21038;-18
2023/05/14 11:17:37;;;;;;;14.60;13.05;;;22.50;62.70;;;;;;4715034;59;21012;-21
2023/05/14 11:22:39;;;;;;;14.73;12.20;;;22.50;62.70;;;;;;4790867;55;21075;-20
2023/05/14 11:27:43;;;;;;;12.75;11.45;;;22.50;62.60;;;;;;4734334;55;21059;-21
2023/05/14 11:32:48;;;;;;;14.13;12.63;;;22.50;62.70;;;;;;4817976;55;21071;-20
2023/05/14 11:37:53;;;;;;;13.30;12.00;;;22.50;62.70;;;;;;4715269;59;21106;-20
2023/05/14 11:42:54;;;;;;;13.80;12.40;;;22.50;62.70;;;;;;4765426;55;21224;-23
2023/05/14 11:47:55;;;;;;;14.30;12.80;;;22.50;62.80;;;;;;4792564;55;21482;-20
2023/05/14 11:52:56;;;;;;;14.52;13.13;;;22.50;62.70;;;;;;4785960;55;21019;-20
2023/05/14 11:57:57;;;;;;;13.32;11.93;;;22.50;62.70;;;;;;4748613;55;21052;-19
2023/05/14 12:02:58;;;;;;;14.20;12.70;;;22.50;62.80;;;;;;4716952;55;20999;-20
2023/05/14 12:07:59;;;;;;;14.20;12.70;;;22.50;62.70;;;;;;4734149;55;20991;-21
2023/05/14 12:13:05;;;;;;;13.85;12.43;;;22.50;62.70;;;;;;4717331;55;21482;-21
2023/05/14 12:18:08;;;;;;;12.95;11.55;;;22.50;62.70;;;;;;4735488;55;21095;-21
2023/05/14 12:23:10;;;;;;;13.50;12.10;;;22.50;62.70;;;;;;4714775;55;21059;-20
2023/05/14 12:28:18;;;;;;;13.88;12.50;;;22.50;62.80;;;;;;4774747;55;21577;-20
2023/05/14 12:33:21;;;;;;;14.10;12.57;;;22.50;62.70;;;;;;4806922;55;21028;-20
2023/05/14 12:38:22;;;;;;;13.32;11.95;;;22.50;62.70;;;;;;4826028;55;21947;-20
2023/05/14 12:43:23;;;;;;;13.77;12.37;;;22.50;62.60;;;;;;4715418;59;21103;-19
2023/05/14 12:48:24;;;;;;;12.90;11.55;;;22.50;62.60;;;;;;4716213;59;21003;-20
2023/05/14 12:53:25;;;;;;;13.23;11.77;;;22.50;62.60;;;;;;4746085;55;21020;-19
2023/05/14 12:58:25;;;;;;;12.77;11.52;;;22.50;62.60;;;;;;4762419;55;21055;-20
2023/05/14 13:03:26;;;;;;;13.85;11.68;;;22.50;62.60;;;;;;4715691;59;21490;-19
2023/05/14 13:08:27;;;;;;;13.55;12.15;;;22.50;62.60;;;;;;4805955;55;21031;-21
2023/05/14 13:13:28;;;;;;;12.77;11.38;;;22.50;62.80;;;;;;4739649;55;21086;-20
2023/05/14 13:18:29;;;;;;;13.65;12.25;;;22.50;62.70;;;;;;4714821;59;20991;-19
2023/05/14 13:23:30;;;;;;;13.77;11.73;;;22.50;62.80;;;;;;4748053;55;21481;-21
2023/05/14 13:28:30;;;;;;;12.60;11.40;;;22.50;62.60;;;;;;4740083;55;21031;-22
2023/05/14 13:33:33;;;;;;;12.77;11.48;;;22.50;62.70;;;;;;4732502;55;21075;-21
2023/05/14 13:38:35;;;;;;;12.50;11.30;;;22.50;62.70;;;;;;4799537;55;21079;-19
2023/05/14 13:43:35;;;;;;;13.57;12.15;;;22.50;62.60;;;;;;4761965;55;21094;-20
2023/05/14 13:48:36;;;;;;;13.00;11.65;;;22.50;62.70;;;;;;4722381;55;21012;-20
2023/05/14 13:53:37;;;;;;;13.25;11.95;;;22.50;62.70;;;;;;4739937;55;21518;-19
2023/05/14 13:58:38;;;;;;;12.77;11.40;;;22.60;62.70;;;;;;4737526;55;21016;-20
2023/05/14 14:03:39;;;;;;;12.23;10.93;;;22.50;62.70;;;;;;4756667;55;21090;-20
2023/05/14 14:08:41;;;;;;;12.70;11.40;;;22.60;62.70;;;;;;4781797;55;21003;-20
2023/05/14 14:13:41;;;;;;;11.90;10.70;;;22.50;62.60;;;;;;4762263;55;21446;-23
2023/05/14 14:18:42;;;;;;;13.15;11.75;;;22.50;62.70;;;;;;4728249;55;21015;-20
2023/05/14 14:23:46;;;;;;;12.95;11.60;;;22.50;62.70;;;;;;4938618;55;21067;-29
2023/05/14 14:28:47;;;;;;;12.80;11.45;;;22.50;62.70;;;;;;4731916;55;21557;-20
2023/05/14 14:33:47;;;;;;;12.68;11.32;;;22.50;62.60;;;;;;4757562;55;21107;-20
2023/05/14 14:38:48;;;;;;;12.52;11.23;;;22.50;62.70;;;;;;4715039;59;21403;-24
2023/05/14 14:43:49;;;;;;;13.18;11.90;;;22.50;62.70;;;;;;4734125;55;21016;-20
2023/05/14 14:48:50;;;;;;;12.82;11.52;;;22.50;62.70;;;;;;4715738;59;21077;-20
2023/05/14 14:53:51;;;;;;;12.70;11.50;;;22.60;62.70;;;;;;4718528;55;21027;-23
2023/05/14 14:58:52;;;;;;;12.68;11.35;;;22.50;62.70;;;;;;4790752;55;21016;-21
2023/05/14 15:03:52;;;;;;;12.40;11.20;;;22.60;62.80;;;;;;4715850;55;21063;-22
2023/05/14 15:08:53;;;;;;;13.02;11.70;;;22.50;63.00;;;;;;4719611;55;21012;-20
2023/05/14 15:13:54;;;;;;;12.10;10.82;;;22.50;62.70;;;;;;4758769;55;21023;-22
2023/05/14 15:18:55;;;;;;;12.73;11.43;;;22.50;62.70;;;;;;4714843;59;21533;-20
2023/05/14 15:23:56;;;;;;;12.37;10.95;;;22.50;62.60;;;;;;4720650;55;21003;-19
2023/05/14 15:28:57;;;;;;;11.93;10.65;;;22.50;62.70;;;;;;4737181;55;21027;-22
2023/05/14 15:33:58;;;;;;;12.75;11.45;;;22.50;62.70;;;;;;4733160;55;21506;-19
2023/05/14 15:38:59;;;;;;;11.98;10.85;;;22.50;62.70;;;;;;4719213;55;21068;-21
2023/05/14 15:44:00;;;;;;;12.23;11.02;;;22.50;62.70;;;;;;4736090;55;21651;-22
2023/05/14 15:49:01;;;;;;;12.70;11.40;;;22.50;62.80;;;;;;4880373;55;21012;-20
2023/05/14 15:54:02;;;;;;;12.32;10.93;;;22.50;62.70;;;;;;4715975;56;21466;-20
2023/05/14 15:59:03;;;;;;;12.07;10.88;;;22.50;62.80;;;;;;4718921;55;21091;-22
2023/05/14 16:04:04;;;;;;;12.50;11.30;;;22.50;62.70;;;;;;4736978;55;21019;-21
2023/05/14 16:09:04;;;;;;;13.30;12.00;;;22.50;62.70;;;;;;4756676;55;21075;-21
2023/05/14 16:14:05;;;;;;;12.23;10.93;;;22.50;62.80;;;;;;4776627;55;21494;-21
2023/05/14 16:19:06;;;;;;;13.10;11.80;;;22.60;62.70;;;;;;4715674;55;21047;-20
2023/05/14 16:24:08;;;;;;;13.57;12.18;;;22.50;62.70;;;;;;4873003;55;21023;-20
2023/05/14 16:29:09;;;;;;;13.25;11.85;;;22.60;62.70;;;;;;4716135;56;21195;-20
2023/05/14 16:34:10;;;;;;;13.32;11.88;;;22.50;62.70;;;;;;4732420;55;21024;-22
2023/05/14 16:39:11;;;;;;;12.88;11.57;;;22.50;62.70;;;;;;4797529;55;21502;-26
2023/05/14 16:44:11;;;;;;;13.55;11.82;;;22.50;62.80;;;;;;4736376;55;21015;-22
2023/05/14 16:49:13;;;;;;;13.23;11.93;;;22.50;62.80;;;;;;4715568;59;21099;-21
2023/05/14 16:54:13;;;;;;;12.27;11.07;;;22.60;62.80;;;;;;4800011;55;21035;-21
2023/05/14 16:59:15;;;;;;;13.18;11.88;;;22.50;62.80;;;;;;4715048;59;21075;-19
2023/05/14 17:04:16;;;;;;;12.95;11.55;;;22.50;62.70;;;;;;4812402;55;21076;-20
2023/05/14 17:09:17;;;;;;;12.73;11.43;;;22.50;62.70;;;;;;4795864;55;21465;-25
2023/05/14 17:14:18;;;;;;;12.60;11.30;;;22.50;62.70;;;;;;4715592;56;21032;-21
2023/05/14 17:19:19;;;;;;;12.45;11.15;;;22.50;62.80;;;;;;4733440;55;21088;-19
2023/05/14 17:24:20;;;;;;;11.82;10.60;;;22.50;62.80;;;;;;4840606;55;21027;-20
2023/05/14 17:29:23;;;;;;;12.37;11.07;;;22.50;62.80;;;;;;4754304;55;21056;-19
2023/05/14 17:34:24;;;;;;;13.32;11.98;;;22.50;62.90;;;;;;4833553;55;21047;-25
2023/05/14 17:39:25;;;;;;;11.77;10.57;;;22.50;62.80;;;;;;4732205;55;21497;-22
2023/05/14 17:44:26;;;;;;;12.60;11.38;;;22.50;62.70;;;;;;4750724;55;21015;-22
2023/05/14 17:49:27;;;;;;;12.65;11.45;;;22.50;62.80;;;;;;4715438;59;21031;-21
2023/05/14 17:54:28;;;;;;;14.07;11.18;;;22.50;62.70;;;;;;4718089;55;21059;-19
2023/05/14 17:59:29;;;;;;;12.15;10.95;;;22.50;62.70;;;;;;4715852;59;21497;-20
2023/05/14 18:04:30;;;;;;;13.05;11.75;;;22.60;62.80;;;;;;4850683;55;21066;-20
2023/05/14 18:09:34;;;;;;;13.00;11.70;;;22.50;62.70;;;;;;4715617;59;21015;-20
2023/05/14 18:14:38;;;;;;;12.63;11.25;;;22.50;62.80;;;;;;4805761;55;21506;-20
2023/05/14 18:19:39;;;;;;;12.40;11.10;;;22.50;62.70;;;;;;4830305;55;21103;-21
2023/05/14 18:24:40;;;;;;;13.68;11.68;;;22.50;62.70;;;;;;4783353;55;21490;-21
2023/05/14 18:29:42;;;;;;;12.98;10.85;;;22.50;62.70;;;;;;4785634;55;21007;-20
2023/05/14 18:34:43;;;;;;;15.27;12.13;;;22.50;62.70;;;;;;4715429;59;21574;-19
2023/05/14 18:39:43;;;;;;;13.23;11.82;;;22.50;62.80;;;;;;4738987;55;21087;-20
2023/05/14 18:44:44;;;;;;;13.90;11.82;;;22.50;62.70;;;;;;4824956;55;21015;-21
2023/05/14 18:49:46;;;;;;;14.20;11.45;;;22.50;62.80;;;;;;4766663;55;21055;-21
2023/05/14 18:54:47;;;;;;;13.93;12.32;;;22.50;62.70;;;;;;4752283;55;21550;-21
2023/05/14 18:59:47;;;;;;;13.07;11.40;;;22.50;62.80;;;;;;4831609;55;21030;-20
2023/05/14 19:04:48;;;;;;;13.07;11.18;;;22.50;62.80;;;;;;4766730;55;21549;-20
2023/05/14 19:09:49;;;;;;;12.88;11.40;;;22.50;62.70;;;;;;4715854;59;21035;-21
2023/05/14 19:14:50;;;;;;;12.90;11.48;;;22.50;62.70;;;;;;4746592;55;21063;-21
2023/05/14 19:19:51;;;;;;;13.60;12.20;;;22.50;62.80;;;;;;4931756;55;21526;-20
2023/05/14 19:24:52;;;;;;;13.57;12.13;;;22.50;62.80;;;;;;4754492;55;21067;-20
2023/05/14 19:30:01;;;;;;;14.00;11.98;;;22.50;62.80;;;;;;4715867;59;21027;-20
2023/05/14 19:35:03;;;;;;;14.15;11.77;;;22.50;62.70;;;;;;4764077;55;21027;-19
2023/05/14 19:40:05;;;;;;;13.25;11.45;;;22.50;62.70;;;;;;4740704;55;21083;-20
2023/05/14 19:45:07;;;;;;;13.57;11.95;;;22.50;62.80;;;;;;4734369;55;21087;-25
2023/05/14 19:50:09;;;;;;;12.75;11.45;;;22.50;62.70;;;;;;4715598;59;21098;-20
2023/05/14 19:55:09;;;;;;;14.87;12.52;;;22.50;62.80;;;;;;4715676;59;21036;-19
2023/05/14 20:00:11;;;;;;;14.30;12.80;;;22.50;62.70;;;;;;4715585;55;21542;-20
2023/05/14 20:05:16;;;;;;;13.38;11.98;;;22.50;62.70;;;;;;4759819;55;21504;-22
2023/05/14 20:10:16;;;;;;;13.62;11.68;;;22.50;62.70;;;;;;4738063;55;21543;-20
2023/05/14 20:15:19;;;;;;;13.95;12.48;;;22.50;62.70;;;;;;4858763;55;21095;-21
2023/05/14 20:20:20;;;;;;;15.10;12.98;;;22.50;62.70;;;;;;4731691;55;21494;-28
2023/05/14 20:25:21;;;;;;;12.95;11.63;;;22.50;62.70;;;;;;4716011;59;21063;-23
2023/05/14 20:30:22;;;;;;;14.30;12.10;;;22.50;62.70;;;;;;4798770;55;21030;-28
2023/05/14 20:35:23;;;;;;;12.93;11.23;;;22.50;62.80;;;;;;4740552;55;22001;-20
2023/05/14 20:40:24;;;;;;;13.98;12.27;;;22.50;62.70;;;;;;4804380;55;21043;-21
2023/05/14 20:45:25;;;;;;;15.13;12.45;;;22.50;62.60;;;;;;4779067;55;21126;-19
2023/05/14 20:50:26;;;;;;;15.18;12.43;;;22.50;62.60;;;;;;4753867;55;21059;-19
2023/05/14 20:55:27;;;;;;;14.87;11.40;;;22.50;62.60;;;;;;4755001;55;21537;-20
2023/05/14 21:00:28;;;;;;;14.55;11.93;;;22.50;62.60;;;;;;4728262;55;21019;-21
2023/05/14 21:05:29;;;;;;;14.18;12.15;;;22.50;62.60;;;;;;4790800;55;21023;-20
2023/05/14 21:10:30;;;;;;;16.20;11.98;;;22.50;62.60;;;;;;4752242;55;21629;-19
2023/05/14 21:15:31;;;;;;;14.87;11.40;;;22.50;62.60;;;;;;4864911;55;21048;-20
2023/05/14 21:20:32;;;;;;;14.18;11.90;;;22.50;62.70;;;;;;4921017;55;21513;-20
2023/05/14 21:25:36;;;;;;;13.00;10.93;;;22.50;62.60;;;;;;4715526;59;21051;-20
2023/05/14 21:30:37;;;;;;;12.88;11.10;;;22.50;62.60;;;;;;4715831;59;21031;-19
2023/05/14 21:35:38;;;;;;;15.00;10.88;;;22.50;62.60;;;;;;4732915;55;21076;-21
2023/05/14 21:40:38;;;;;;;12.43;11.05;;;22.50;62.60;;;;;;4780843;55;21505;-21
2023/05/14 21:45:39;;;;;;;13.98;10.93;;;22.50;62.50;;;;;;4715662;59;21015;-21
2023/05/14 21:50:40;;;;;;;12.25;10.95;;;22.50;62.60;;;;;;4726980;55;21490;-20
2023/05/14 21:55:41;;;;;;;14.73;11.35;;;22.50;62.60;;;;;;4754791;55;21063;-21
2023/05/14 22:00:42;;;;;;;14.02;11.27;;;22.50;62.60;;;;;;4777622;55;21015;-21
2023/05/14 22:05:46;;;;;;;12.00;10.73;;;22.50;62.60;;;;;;4752489;55;21071;-19
2023/05/14 22:10:47;;;;;;;12.88;11.20;;;22.50;62.70;;;;;;4715591;59;21082;-19
2023/05/14 22:15:48;;;;;;;14.40;11.00;;;22.50;62.60;;;;;;4783225;55;21589;-19
2023/05/14 22:20:48;;;;;;;12.63;10.45;;;22.50;62.60;;;;;;4737190;55;21111;-31
2023/05/14 22:25:49;;;;;;;12.23;10.73;;;22.50;62.60;;;;;;4749732;55;21439;-27
2023/05/14 22:30:50;;;;;;;12.23;10.38;;;22.50;62.60;;;;;;4791066;55;21099;-32
2023/05/14 22:35:51;;;;;;;15.30;10.43;;;22.50;62.60;;;;;;4760242;55;21580;-20
2023/05/14 22:40:52;;;;;;;11.93;10.38;;;22.50;62.60;;;;;;4735527;55;21003;-21
2023/05/14 22:45:53;;;;;;;13.10;11.00;;;22.50;62.60;;;;;;4751756;55;21558;-20
2023/05/14 22:50:53;;;;;;;12.90;10.48;;;22.50;62.70;;;;;;4736855;55;21071;-21
2023/05/14 22:55:54;;;;;;;12.25;10.60;;;22.50;62.80;;;;;;4728827;55;21008;-20
2023/05/14 23:00:58;;;;;;;11.98;10.63;;;22.50;62.70;;;;;;4744960;55;21015;-19
2023/05/14 23:05:59;;;;;;;12.37;9.93;;;22.50;62.70;;;;;;4783210;55;21007;-20
2023/05/14 23:11:00;;;;;;;12.20;10.60;;;22.50;62.60;;;;;;4724449;55;21063;-20
2023/05/14 23:16:01;;;;;;;13.10;10.00;;;22.50;62.70;;;;;;4798039;55;21024;-20
2023/05/14 23:21:02;;;;;;;12.45;10.23;;;22.50;62.70;;;;;;4751404;55;21059;-20
2023/05/14 23:26:03;;;;;;;12.48;9.88;;;22.50;62.70;;;;;;4716096;55;21027;-21
2023/05/14 23:31:04;;;;;;;12.73;10.35;;;22.50;62.70;;;;;;4779142;55;20996;-19
2023/05/14 23:36:06;;;;;;;11.38;9.73;;;22.50;62.90;;;;;;4715299;59;21965;-20
2023/05/14 23:41:07;;;;;;;11.27;9.70;;;22.50;62.80;;;;;;4715880;59;21047;-19
2023/05/14 23:46:08;;;;;;;12.75;9.88;;;22.50;62.70;;;;;;4720099;55;21562;-19
2023/05/14 23:51:09;;;;;;;12.57;9.98;;;22.50;62.70;;;;;;4715916;59;21063;-19
2023/05/14 23:56:11;;;;;;;11.40;9.93;;;22.50;62.80;;;;;;4796184;55;21616;-19
